sensor_id;sensor_type;location;lat;lon;timestamp;temperature;humidity
8338;DHT22;4206;48.634;9.516;2023-10-13T00:00:30;16.60;99.90
8338;DHT22;4206;48.634;9.516;2023-10-13T00:03:00;16.50;99.90
8338;DHT22;4206;48.634;9.516;2023-10-13T00:05:29;16.60;99.90
8338;DHT22;4206;48.634;9.516;2023-10-13T00:08:00;16.60;99.90
8338;DHT22;4206;48.634;9.516;2023-10-13T00:10:29;16.60;99.90
8338;DHT22;4206;48.634;9.516;2023-10-13T00:12:57;16.60;99.90
8338;DHT22;4206;48.634;9.516;2023-10-13T00:15:42;16.50;99.90
8338;DHT22;4206;48.634;9.516;2023-10-13T00:18:30;16.50;99.90
8338;DHT22;4206;48.634;9.516;2023-10-13T00:21:01;16.40;99.90
8338;DHT22;4206;48.634;9.516;2023-10-13T00:23:40;16.50;99.90
8338;DHT22;4206;48.634;9.516;2023-10-13T00:26:22;16.40;99.90
8338;DHT22;4206;48.634;9.516;2023-10-13T00:31:37;16.40;99.90
8338;DHT22;4206;48.634;9.516;2023-10-13T00:34:07;16.30;99.90
8338;DHT22;4206;48.634;9.516;2023-10-13T00:36:49;16.30;99.90
8338;DHT22;4206;48.634;9.516;2023-10-13T00:39:36;16.30;99.90
8338;DHT22;4206;48.634;9.516;2023-10-13T00:42:07;16.30;99.90
8338;DHT22;4206;48.634;9.516;2023-10-13T00:44:35;16.20;99.90
8338;DHT22;4206;48.634;9.516;2023-10-13T00:47:09;16.20;99.90
8338;DHT22;4206;48.634;9.516;2023-10-13T00:49:37;16.10;99.90
8338;DHT22;4206;48.634;9.516;2023-10-13T00:52:07;16.10;99.90
8338;DHT22;4206;48.634;9.516;2023-10-13T00:54:37;16.10;99.90
8338;DHT22;4206;48.634;9.516;2023-10-13T00:57:05;15.90;99.90
8338;DHT22;4206;48.634;9.516;2023-10-13T00:59:39;15.90;99.90
8338;DHT22;4206;48.634;9.516;2023-10-13T01:02:09;15.70;99.90
8338;DHT22;4206;48.634;9.516;2023-10-13T01:04:55;15.60;99.90
8338;DHT22;4206;48.634;9.516;2023-10-13T01:07:23;15.60;99.90
8338;DHT22;4206;48.634;9.516;2023-10-13T01:09:51;15.50;99.90
8338;DHT22;4206;48.634;9.516;2023-10-13T01:12:18;15.40;99.90
8338;DHT22;4206;48.634;9.516;2023-10-13T01:14:45;15.30;99.90
8338;DHT22;4206;48.634;9.516;2023-10-13T01:17:12;15.20;99.90
8338;DHT22;4206;48.634;9.516;2023-10-13T01:19:40;15.10;99.90
8338;DHT22;4206;48.634;9.516;2023-10-13T01:22:12;15.00;99.90
8338;DHT22;4206;48.634;9.516;2023-10-13T01:24:39;14.90;99.90
8338;DHT22;4206;48.634;9.516;2023-10-13T01:27:07;14.80;99.90
8338;DHT22;4206;48.634;9.516;2023-10-13T01:29:49;14.80;99.90
8338;DHT22;4206;48.634;9.516;2023-10-13T01:32:19;14.70;99.90
8338;DHT22;4206;48.634;9.516;2023-10-13T01:34:46;14.60;99.90
8338;DHT22;4206;48.634;9.516;2023-10-13T01:37:14;14.60;99.90
8338;DHT22;4206;48.634;9.516;2023-10-13T01:39:43;14.50;99.90
8338;DHT22;4206;48.634;9.516;2023-10-13T01:42:15;14.50;99.90
8338;DHT22;4206;48.634;9.516;2023-10-13T01:44:49;14.40;99.90
8338;DHT22;4206;48.634;9.516;2023-10-13T01:47:16;14.30;99.90
8338;DHT22;4206;48.634;9.516;2023-10-13T01:49:44;14.30;99.90
8338;DHT22;4206;48.634;9.516;2023-10-13T01:52:17;14.30;99.90
8338;DHT22;4206;48.634;9.516;2023-10-13T01:54:46;14.30;99.90
8338;DHT22;4206;48.634;9.516;2023-10-13T01:57:16;14.20;99.90
8338;DHT22;4206;48.634;9.516;2023-10-13T01:59:47;14.10;99.90
8338;DHT22;4206;48.634;9.516;2023-10-13T02:02:15;14.10;99.90
8338;DHT22;4206;48.634;9.516;2023-10-13T02:04:53;14.10;99.90
8338;DHT22;4206;48.634;9.516;2023-10-13T02:07:24;14.00;99.90
8338;DHT22;4206;48.634;9.516;2023-10-13T02:09:57;14.00;99.90
8338;DHT22;4206;48.634;9.516;2023-10-13T02:12:23;13.90;99.90
8338;DHT22;4206;48.634;9.516;2023-10-13T02:15:03;13.80;99.90
8338;DHT22;4206;48.634;9.516;2023-10-13T02:17:31;13.80;99.90
8338;DHT22;4206;48.634;9.516;2023-10-13T02:20:09;13.70;99.90
8338;DHT22;4206;48.634;9.516;2023-10-13T02:22:42;13.70;99.90
8338;DHT22;4206;48.634;9.516;2023-10-13T02:25:17;13.70;99.90
8338;DHT22;4206;48.634;9.516;2023-10-13T02:28:02;13.60;99.90
8338;DHT22;4206;48.634;9.516;2023-10-13T02:30:29;13.60;99.90
8338;DHT22;4206;48.634;9.516;2023-10-13T02:32:56;13.60;99.90
8338;DHT22;4206;48.634;9.516;2023-10-13T02:35:25;13.50;99.90
8338;DHT22;4206;48.634;9.516;2023-10-13T02:38:08;13.40;99.90
8338;DHT22;4206;48.634;9.516;2023-10-13T02:40:40;13.30;99.90
8338;DHT22;4206;48.634;9.516;2023-10-13T02:43:07;13.20;99.90
8338;DHT22;4206;48.634;9.516;2023-10-13T02:45:35;13.20;99.90
8338;DHT22;4206;48.634;9.516;2023-10-13T02:48:04;13.10;99.90
8338;DHT22;4206;48.634;9.516;2023-10-13T02:50:58;13.10;99.90
8338;DHT22;4206;48.634;9.516;2023-10-13T02:53:29;13.00;99.90
8338;DHT22;4206;48.634;9.516;2023-10-13T02:55:57;13.00;99.90
8338;DHT22;4206;48.634;9.516;2023-10-13T02:58:33;12.90;99.90
8338;DHT22;4206;48.634;9.516;2023-10-13T03:01:16;12.90;99.90
8338;DHT22;4206;48.634;9.516;2023-10-13T03:03:47;12.90;99.90
8338;DHT22;4206;48.634;9.516;2023-10-13T03:06:18;12.80;99.90
8338;DHT22;4206;48.634;9.516;2023-10-13T03:08:52;12.80;99.90
8338;DHT22;4206;48.634;9.516;2023-10-13T03:11:19;12.70;99.90
8338;DHT22;4206;48.634;9.516;2023-10-13T03:13:49;12.70;99.90
8338;DHT22;4206;48.634;9.516;2023-10-13T03:16:19;12.70;99.90
8338;DHT22;4206;48.634;9.516;2023-10-13T03:18:48;12.70;99.90
8338;DHT22;4206;48.634;9.516;2023-10-13T03:21:21;12.60;99.90
8338;DHT22;4206;48.634;9.516;2023-10-13T03:23:58;12.60;99.90
8338;DHT22;4206;48.634;9.516;2023-10-13T03:26:41;12.60;99.90
8338;DHT22;4206;48.634;9.516;2023-10-13T03:29:19;12.60;99.90
8338;DHT22;4206;48.634;9.516;2023-10-13T03:31:49;12.60;99.90
8338;DHT22;4206;48.634;9.516;2023-10-13T03:34:34;12.50;99.90
8338;DHT22;4206;48.634;9.516;2023-10-13T03:37:02;12.50;99.90
8338;DHT22;4206;48.634;9.516;2023-10-13T03:39:45;12.50;99.90
8338;DHT22;4206;48.634;9.516;2023-10-13T03:42:13;12.40;99.90
8338;DHT22;4206;48.634;9.516;2023-10-13T03:44:46;12.40;99.90
8338;DHT22;4206;48.634;9.516;2023-10-13T03:47:14;12.40;99.90
8338;DHT22;4206;48.634;9.516;2023-10-13T03:49:45;12.40;99.90
8338;DHT22;4206;48.634;9.516;2023-10-13T03:52:17;12.30;99.90
8338;DHT22;4206;48.634;9.516;2023-10-13T03:54:49;12.30;99.90
8338;DHT22;4206;48.634;9.516;2023-10-13T03:57:18;12.30;99.90
8338;DHT22;4206;48.634;9.516;2023-10-13T03:59:45;12.30;99.90
8338;DHT22;4206;48.634;9.516;2023-10-13T04:02:15;12.30;99.90
8338;DHT22;4206;48.634;9.516;2023-10-13T04:04:48;12.20;99.90
8338;DHT22;4206;48.634;9.516;2023-10-13T04:07:15;12.20;99.90
8338;DHT22;4206;48.634;9.516;2023-10-13T04:09:58;12.20;99.90
8338;DHT22;4206;48.634;9.516;2023-10-13T04:12:40;12.20;99.90
8338;DHT22;4206;48.634;9.516;2023-10-13T04:15:22;12.10;99.90
8338;DHT22;4206;48.634;9.516;2023-10-13T04:17:50;12.10;99.90
8338;DHT22;4206;48.634;9.516;2023-10-13T04:20:18;12.10;99.90
8338;DHT22;4206;48.634;9.516;2023-10-13T04:23:00;12.10;99.90
8338;DHT22;4206;48.634;9.516;2023-10-13T04:25:28;12.10;99.90
8338;DHT22;4206;48.634;9.516;2023-10-13T04:27:55;11.90;99.90
8338;DHT22;4206;48.634;9.516;2023-10-13T04:30:47;12.00;99.90
8338;DHT22;4206;48.634;9.516;2023-10-13T04:33:23;12.00;99.90
8338;DHT22;4206;48.634;9.516;2023-10-13T04:36:08;12.00;99.90
8338;DHT22;4206;48.634;9.516;2023-10-13T04:38:52;11.90;99.90
8338;DHT22;4206;48.634;9.516;2023-10-13T04:41:29;11.90;99.90
8338;DHT22;4206;48.634;9.516;2023-10-13T04:44:15;11.90;99.90
8338;DHT22;4206;48.634;9.516;2023-10-13T04:46:58;11.90;99.90
8338;DHT22;4206;48.634;9.516;2023-10-13T04:49:28;11.90;99.90
8338;DHT22;4206;48.634;9.516;2023-10-13T04:51:57;11.70;99.90
8338;DHT22;4206;48.634;9.516;2023-10-13T04:54:27;11.80;99.90
8338;DHT22;4206;48.634;9.516;2023-10-13T04:57:01;11.80;99.90
8338;DHT22;4206;48.634;9.516;2023-10-13T04:59:43;11.80;99.90
8338;DHT22;4206;48.634;9.516;2023-10-13T05:02:25;11.80;99.90
8338;DHT22;4206;48.634;9.516;2023-10-13T05:05:09;11.80;99.90
8338;DHT22;4206;48.634;9.516;2023-10-13T05:07:48;11.80;99.90
8338;DHT22;4206;48.634;9.516;2023-10-13T05:10:31;11.80;99.90
8338;DHT22;4206;48.634;9.516;2023-10-13T05:13:14;11.70;99.90
8338;DHT22;4206;48.634;9.516;2023-10-13T05:15:56;11.70;99.90
8338;DHT22;4206;48.634;9.516;2023-10-13T05:18:39;11.70;99.90
8338;DHT22;4206;48.634;9.516;2023-10-13T05:21:21;11.70;99.90
8338;DHT22;4206;48.634;9.516;2023-10-13T05:24:08;11.60;99.90
8338;DHT22;4206;48.634;9.516;2023-10-13T05:26:51;11.70;99.90
8338;DHT22;4206;48.634;9.516;2023-10-13T05:29:38;11.70;99.90
8338;DHT22;4206;48.634;9.516;2023-10-13T05:32:22;11.80;99.90
8338;DHT22;4206;48.634;9.516;2023-10-13T05:35:06;11.80;99.90
8338;DHT22;4206;48.634;9.516;2023-10-13T05:37:50;11.90;99.90
8338;DHT22;4206;48.634;9.516;2023-10-13T05:40:34;11.80;99.90
8338;DHT22;4206;48.634;9.516;2023-10-13T05:43:16;11.80;99.90
8338;DHT22;4206;48.634;9.516;2023-10-13T05:46:03;11.70;99.90
8338;DHT22;4206;48.634;9.516;2023-10-13T05:48:46;11.80;99.90
8338;DHT22;4206;48.634;9.516;2023-10-13T05:51:29;11.80;99.90
8338;DHT22;4206;48.634;9.516;2023-10-13T05:54:11;11.80;99.90
8338;DHT22;4206;48.634;9.516;2023-10-13T05:59:25;11.70;99.90
8338;DHT22;4206;48.634;9.516;2023-10-13T06:02:07;11.80;99.90
8338;DHT22;4206;48.634;9.516;2023-10-13T06:04:49;11.90;99.90
8338;DHT22;4206;48.634;9.516;2023-10-13T06:07:31;12.00;99.90
8338;DHT22;4206;48.634;9.516;2023-10-13T06:10:14;12.00;99.90
8338;DHT22;4206;48.634;9.516;2023-10-13T06:13:01;12.10;99.90
8338;DHT22;4206;48.634;9.516;2023-10-13T06:15:43;12.20;99.90
8338;DHT22;4206;48.634;9.516;2023-10-13T06:18:25;12.30;99.90
8338;DHT22;4206;48.634;9.516;2023-10-13T06:21:07;12.40;99.90
8338;DHT22;4206;48.634;9.516;2023-10-13T06:23:50;12.50;99.90
8338;DHT22;4206;48.634;9.516;2023-10-13T06:26:32;12.50;99.90
8338;DHT22;4206;48.634;9.516;2023-10-13T06:29:14;12.70;99.90
8338;DHT22;4206;48.634;9.516;2023-10-13T06:31:47;12.70;99.90
8338;DHT22;4206;48.634;9.516;2023-10-13T06:34:14;12.80;99.90
8338;DHT22;4206;48.634;9.516;2023-10-13T06:36:42;13.00;99.90
8338;DHT22;4206;48.634;9.516;2023-10-13T06:39:13;13.20;99.90
8338;DHT22;4206;48.634;9.516;2023-10-13T06:42:00;13.40;99.90
8338;DHT22;4206;48.634;9.516;2023-10-13T06:44:27;13.50;99.90
8338;DHT22;4206;48.634;9.516;2023-10-13T06:46:59;13.80;99.90
8338;DHT22;4206;48.634;9.516;2023-10-13T06:49:31;14.20;99.90
8338;DHT22;4206;48.634;9.516;2023-10-13T06:52:06;14.50;99.90
8338;DHT22;4206;48.634;9.516;2023-10-13T06:54:33;14.80;99.90
8338;DHT22;4206;48.634;9.516;2023-10-13T06:57:01;14.80;99.90
8338;DHT22;4206;48.634;9.516;2023-10-13T06:59:31;15.10;99.90
8338;DHT22;4206;48.634;9.516;2023-10-13T07:01:59;15.40;99.90
8338;DHT22;4206;48.634;9.516;2023-10-13T07:04:52;16.00;99.90
8338;DHT22;4206;48.634;9.516;2023-10-13T07:07:24;16.60;99.90
8338;DHT22;4206;48.634;9.516;2023-10-13T07:09:51;16.80;99.90
8338;DHT22;4206;48.634;9.516;2023-10-13T07:12:25;16.80;99.90
8338;DHT22;4206;48.634;9.516;2023-10-13T07:14:54;17.20;99.90
8338;DHT22;4206;48.634;9.516;2023-10-13T07:17:41;17.70;99.90
8338;DHT22;4206;48.634;9.516;2023-10-13T07:20:11;18.10;99.90
8338;DHT22;4206;48.634;9.516;2023-10-13T07:22:42;18.70;99.90
8338;DHT22;4206;48.634;9.516;2023-10-13T07:25:22;19.40;99.90
8338;DHT22;4206;48.634;9.516;2023-10-13T07:27:52;19.90;99.90
8338;DHT22;4206;48.634;9.516;2023-10-13T07:30:20;20.40;99.90
8338;DHT22;4206;48.634;9.516;2023-10-13T07:32:54;21.30;99.90
8338;DHT22;4206;48.634;9.516;2023-10-13T07:35:25;21.90;99.90
8338;DHT22;4206;48.634;9.516;2023-10-13T07:37:53;22.60;99.90
8338;DHT22;4206;48.634;9.516;2023-10-13T07:40:22;23.20;99.90
8338;DHT22;4206;48.634;9.516;2023-10-13T07:42:53;24.10;99.90
8338;DHT22;4206;48.634;9.516;2023-10-13T07:45:28;24.60;99.90
8338;DHT22;4206;48.634;9.516;2023-10-13T07:48:04;24.60;99.90
8338;DHT22;4206;48.634;9.516;2023-10-13T07:50:43;25.60;99.90
8338;DHT22;4206;48.634;9.516;2023-10-13T07:53:12;25.90;99.90
8338;DHT22;4206;48.634;9.516;2023-10-13T07:55:50;26.40;99.90
8338;DHT22;4206;48.634;9.516;2023-10-13T07:58:23;26.80;99.90
8338;DHT22;4206;48.634;9.516;2023-10-13T08:00:54;27.10;99.90
8338;DHT22;4206;48.634;9.516;2023-10-13T08:03:36;27.20;99.90
8338;DHT22;4206;48.634;9.516;2023-10-13T08:06:13;26.80;99.90
8338;DHT22;4206;48.634;9.516;2023-10-13T08:08:48;26.50;99.90
8338;DHT22;4206;48.634;9.516;2023-10-13T08:11:17;26.60;99.90
8338;DHT22;4206;48.634;9.516;2023-10-13T08:16:33;27.60;99.90
8338;DHT22;4206;48.634;9.516;2023-10-13T08:19:19;27.30;99.90
8338;DHT22;4206;48.634;9.516;2023-10-13T08:21:47;27.50;99.90
8338;DHT22;4206;48.634;9.516;2023-10-13T08:24:18;27.90;99.90
8338;DHT22;4206;48.634;9.516;2023-10-13T08:26:53;28.30;99.90
8338;DHT22;4206;48.634;9.516;2023-10-13T08:29:24;29.50;98.70
8338;DHT22;4206;48.634;9.516;2023-10-13T08:31:55;29.50;98.50
8338;DHT22;4206;48.634;9.516;2023-10-13T08:34:37;29.50;97.90
8338;DHT22;4206;48.634;9.516;2023-10-13T08:37:26;29.80;96.80
8338;DHT22;4206;48.634;9.516;2023-10-13T08:39:55;30.40;96.60
8338;DHT22;4206;48.634;9.516;2023-10-13T08:42:35;30.30;96.60
8338;DHT22;4206;48.634;9.516;2023-10-13T08:45:08;30.20;96.40
8338;DHT22;4206;48.634;9.516;2023-10-13T08:47:50;31.00;95.50
8338;DHT22;4206;48.634;9.516;2023-10-13T08:50:37;32.00;94.20
8338;DHT22;4206;48.634;9.516;2023-10-13T08:53:23;32.20;92.60
8338;DHT22;4206;48.634;9.516;2023-10-13T08:56:00;31.90;92.80
8338;DHT22;4206;48.634;9.516;2023-10-13T08:58:33;32.20;92.60
8338;DHT22;4206;48.634;9.516;2023-10-13T09:01:15;32.70;91.70
8338;DHT22;4206;48.634;9.516;2023-10-13T09:03:58;32.60;91.70
8338;DHT22;4206;48.634;9.516;2023-10-13T09:07:03;32.60;91.60
8338;DHT22;4206;48.634;9.516;2023-10-13T09:09:33;32.80;91.30
8338;DHT22;4206;48.634;9.516;2023-10-13T09:12:10;33.00;90.90
8338;DHT22;4206;48.634;9.516;2023-10-13T09:14:42;32.30;91.60
8338;DHT22;4206;48.634;9.516;2023-10-13T09:17:12;33.10;91.80
8338;DHT22;4206;48.634;9.516;2023-10-13T09:19:51;33.50;84.40
8338;DHT22;4206;48.634;9.516;2023-10-13T09:22:27;32.20;90.30
8338;DHT22;4206;48.634;9.516;2023-10-13T09:24:57;31.00;91.00
8338;DHT22;4206;48.634;9.516;2023-10-13T09:27:27;29.90;92.30
8338;DHT22;4206;48.634;9.516;2023-10-13T09:29:57;29.20;92.70
8338;DHT22;4206;48.634;9.516;2023-10-13T09:32:24;28.80;92.60
8338;DHT22;4206;48.634;9.516;2023-10-13T09:35:01;28.30;92.00
8338;DHT22;4206;48.634;9.516;2023-10-13T09:37:29;27.80;92.90
8338;DHT22;4206;48.634;9.516;2023-10-13T09:40:00;27.40;94.40
8338;DHT22;4206;48.634;9.516;2023-10-13T09:42:32;27.00;94.40
8338;DHT22;4206;48.634;9.516;2023-10-13T09:45:02;26.80;94.70
8338;DHT22;4206;48.634;9.516;2023-10-13T09:47:31;26.70;94.00
8338;DHT22;4206;48.634;9.516;2023-10-13T09:50:08;26.80;94.70
8338;DHT22;4206;48.634;9.516;2023-10-13T09:52:51;26.60;93.80
8338;DHT22;4206;48.634;9.516;2023-10-13T09:55:30;26.50;94.20
8338;DHT22;4206;48.634;9.516;2023-10-13T09:58:04;26.50;94.80
8338;DHT22;4206;48.634;9.516;2023-10-13T10:00:47;26.50;94.90
8338;DHT22;4206;48.634;9.516;2023-10-13T10:03:17;26.50;96.20
8338;DHT22;4206;48.634;9.516;2023-10-13T10:06:02;26.50;96.60
8338;DHT22;4206;48.634;9.516;2023-10-13T10:08:33;26.60;96.20
8338;DHT22;4206;48.634;9.516;2023-10-13T10:16:50;26.60;96.70
8338;DHT22;4206;48.634;9.516;2023-10-13T10:19:21;26.60;96.00
8338;DHT22;4206;48.634;9.516;2023-10-13T10:21:48;26.60;96.50
8338;DHT22;4206;48.634;9.516;2023-10-13T10:24:17;26.80;94.50
8338;DHT22;4206;48.634;9.516;2023-10-13T10:26:56;26.90;94.10
8338;DHT22;4206;48.634;9.516;2023-10-13T10:29:23;27.00;92.30
8338;DHT22;4206;48.634;9.516;2023-10-13T10:31:50;27.20;93.30
8338;DHT22;4206;48.634;9.516;2023-10-13T10:34:18;27.70;93.60
8338;DHT22;4206;48.634;9.516;2023-10-13T10:36:47;27.90;94.00
8338;DHT22;4206;48.634;9.516;2023-10-13T10:39:14;28.00;93.70
8338;DHT22;4206;48.634;9.516;2023-10-13T10:41:42;28.10;93.10
8338;DHT22;4206;48.634;9.516;2023-10-13T10:46:43;27.90;91.40
8338;DHT22;4206;48.634;9.516;2023-10-13T10:49:19;27.70;92.90
8338;DHT22;4206;48.634;9.516;2023-10-13T10:51:59;27.80;91.60
8338;DHT22;4206;48.634;9.516;2023-10-13T10:54:31;27.90;92.30
8338;DHT22;4206;48.634;9.516;2023-10-13T10:56:59;28.00;92.90
8338;DHT22;4206;48.634;9.516;2023-10-13T10:59:42;28.10;92.10
8338;DHT22;4206;48.634;9.516;2023-10-13T11:02:09;28.20;92.50
8338;DHT22;4206;48.634;9.516;2023-10-13T11:04:42;28.20;91.60
8338;DHT22;4206;48.634;9.516;2023-10-13T11:07:24;28.40;91.40
8338;DHT22;4206;48.634;9.516;2023-10-13T11:09:52;28.40;89.30
8338;DHT22;4206;48.634;9.516;2023-10-13T11:12:20;28.40;83.90
8338;DHT22;4206;48.634;9.516;2023-10-13T11:17:28;28.60;84.90
8338;DHT22;4206;48.634;9.516;2023-10-13T11:20:12;28.50;83.60
8338;DHT22;4206;48.634;9.516;2023-10-13T11:22:55;28.70;83.10
8338;DHT22;4206;48.634;9.516;2023-10-13T11:25:24;28.90;84.30
8338;DHT22;4206;48.634;9.516;2023-10-13T11:27:57;29.00;81.70
8338;DHT22;4206;48.634;9.516;2023-10-13T11:30:27;28.90;82.40
8338;DHT22;4206;48.634;9.516;2023-10-13T11:33:09;28.70;83.00
8338;DHT22;4206;48.634;9.516;2023-10-13T11:35:38;28.70;79.90
8338;DHT22;4206;48.634;9.516;2023-10-13T11:38:36;28.60;80.00
8338;DHT22;4206;48.634;9.516;2023-10-13T11:41:16;28.40;81.00
8338;DHT22;4206;48.634;9.516;2023-10-13T11:46:33;28.60;80.20
8338;DHT22;4206;48.634;9.516;2023-10-13T11:49:06;28.80;79.70
8338;DHT22;4206;48.634;9.516;2023-10-13T11:51:50;28.90;80.40
8338;DHT22;4206;48.634;9.516;2023-10-13T11:54:19;29.00;78.20
8338;DHT22;4206;48.634;9.516;2023-10-13T11:56:47;29.30;76.40
8338;DHT22;4206;48.634;9.516;2023-10-13T11:59:14;29.30;76.60
8338;DHT22;4206;48.634;9.516;2023-10-13T12:01:47;29.40;75.30
8338;DHT22;4206;48.634;9.516;2023-10-13T12:04:29;29.20;73.70
8338;DHT22;4206;48.634;9.516;2023-10-13T12:07:08;29.20;76.50
8338;DHT22;4206;48.634;9.516;2023-10-13T12:09:51;29.80;74.40
8338;DHT22;4206;48.634;9.516;2023-10-13T12:12:18;30.30;75.20
8338;DHT22;4206;48.634;9.516;2023-10-13T12:14:45;30.70;74.60
8338;DHT22;4206;48.634;9.516;2023-10-13T12:17:19;31.40;73.40
8338;DHT22;4206;48.634;9.516;2023-10-13T12:19:52;32.10;73.80
8338;DHT22;4206;48.634;9.516;2023-10-13T12:22:19;32.50;71.20
8338;DHT22;4206;48.634;9.516;2023-10-13T12:24:56;32.80;69.10
8338;DHT22;4206;48.634;9.516;2023-10-13T12:27:23;33.00;70.10
8338;DHT22;4206;48.634;9.516;2023-10-13T12:29:52;32.90;68.40
8338;DHT22;4206;48.634;9.516;2023-10-13T12:32:19;32.60;69.70
8338;DHT22;4206;48.634;9.516;2023-10-13T12:34:49;33.00;71.60
8338;DHT22;4206;48.634;9.516;2023-10-13T12:37:31;34.30;70.30
8338;DHT22;4206;48.634;9.516;2023-10-13T12:40:16;35.20;66.60
8338;DHT22;4206;48.634;9.516;2023-10-13T12:42:59;34.40;64.30
8338;DHT22;4206;48.634;9.516;2023-10-13T12:45:42;34.10;66.00
8338;DHT22;4206;48.634;9.516;2023-10-13T12:48:24;33.60;66.30
8338;DHT22;4206;48.634;9.516;2023-10-13T12:51:06;33.60;64.70
8338;DHT22;4206;48.634;9.516;2023-10-13T12:53:48;33.20;65.50
8338;DHT22;4206;48.634;9.516;2023-10-13T12:56:15;33.40;66.40
8338;DHT22;4206;48.634;9.516;2023-10-13T12:58:43;33.50;64.90
8338;DHT22;4206;48.634;9.516;2023-10-13T13:01:19;33.90;67.30
8338;DHT22;4206;48.634;9.516;2023-10-13T13:03:48;34.80;65.80
8338;DHT22;4206;48.634;9.516;2023-10-13T13:06:17;35.20;64.40
8338;DHT22;4206;48.634;9.516;2023-10-13T13:08:44;35.20;64.70
8338;DHT22;4206;48.634;9.516;2023-10-13T13:11:13;34.70;63.80
8338;DHT22;4206;48.634;9.516;2023-10-13T13:13:40;34.60;65.70
8338;DHT22;4206;48.634;9.516;2023-10-13T13:16:07;34.70;65.50
8338;DHT22;4206;48.634;9.516;2023-10-13T13:18:34;36.20;63.00
8338;DHT22;4206;48.634;9.516;2023-10-13T13:21:01;37.20;61.50
8338;DHT22;4206;48.634;9.516;2023-10-13T13:23:32;36.80;61.50
8338;DHT22;4206;48.634;9.516;2023-10-13T13:26:01;36.40;61.80
8338;DHT22;4206;48.634;9.516;2023-10-13T13:28:28;37.30;61.80
8338;DHT22;4206;48.634;9.516;2023-10-13T13:30:56;38.00;61.60
8338;DHT22;4206;48.634;9.516;2023-10-13T13:33:23;36.70;58.50
8338;DHT22;4206;48.634;9.516;2023-10-13T13:35:54;36.30;60.00
8338;DHT22;4206;48.634;9.516;2023-10-13T13:38:21;36.30;60.80
8338;DHT22;4206;48.634;9.516;2023-10-13T13:40:54;35.50;60.00
8338;DHT22;4206;48.634;9.516;2023-10-13T13:43:22;35.40;60.40
8338;DHT22;4206;48.634;9.516;2023-10-13T13:46:06;34.80;59.80
8338;DHT22;4206;48.634;9.516;2023-10-13T13:48:37;34.50;62.10
8338;DHT22;4206;48.634;9.516;2023-10-13T13:51:05;34.70;61.10
8338;DHT22;4206;48.634;9.516;2023-10-13T13:53:40;34.90;61.40
8338;DHT22;4206;48.634;9.516;2023-10-13T13:56:12;35.20;60.90
8338;DHT22;4206;48.634;9.516;2023-10-13T13:58:45;35.50;60.00
8338;DHT22;4206;48.634;9.516;2023-10-13T14:01:13;36.90;61.60
8338;DHT22;4206;48.634;9.516;2023-10-13T14:03:42;37.30;58.20
8338;DHT22;4206;48.634;9.516;2023-10-13T14:06:14;36.40;58.00
8338;DHT22;4206;48.634;9.516;2023-10-13T14:08:58;35.70;59.70
8338;DHT22;4206;48.634;9.516;2023-10-13T14:11:42;36.50;58.70
8338;DHT22;4206;48.634;9.516;2023-10-13T14:14:24;36.20;59.70
8338;DHT22;4206;48.634;9.516;2023-10-13T14:16:52;36.30;59.70
8338;DHT22;4206;48.634;9.516;2023-10-13T14:19:20;35.90;59.80
8338;DHT22;4206;48.634;9.516;2023-10-13T14:21:55;35.90;59.90
8338;DHT22;4206;48.634;9.516;2023-10-13T14:24:24;34.80;60.00
8338;DHT22;4206;48.634;9.516;2023-10-13T14:26:55;34.60;61.40
8338;DHT22;4206;48.634;9.516;2023-10-13T14:29:23;34.30;60.50
8338;DHT22;4206;48.634;9.516;2023-10-13T14:31:53;34.30;59.90
8338;DHT22;4206;48.634;9.516;2023-10-13T14:34:20;34.30;59.40
8338;DHT22;4206;48.634;9.516;2023-10-13T14:36:49;34.10;61.50
8338;DHT22;4206;48.634;9.516;2023-10-13T14:39:16;34.00;61.80
8338;DHT22;4206;48.634;9.516;2023-10-13T14:41:42;34.40;59.80
8338;DHT22;4206;48.634;9.516;2023-10-13T14:44:09;34.00;62.20
8338;DHT22;4206;48.634;9.516;2023-10-13T14:46:39;33.80;60.20
8338;DHT22;4206;48.634;9.516;2023-10-13T14:49:07;33.80;61.50
8338;DHT22;4206;48.634;9.516;2023-10-13T14:51:34;33.00;61.80
8338;DHT22;4206;48.634;9.516;2023-10-13T14:54:06;32.20;62.30
8338;DHT22;4206;48.634;9.516;2023-10-13T14:56:33;32.00;62.10
8338;DHT22;4206;48.634;9.516;2023-10-13T14:59:00;31.60;61.60
8338;DHT22;4206;48.634;9.516;2023-10-13T15:01:27;31.00;61.80
8338;DHT22;4206;48.634;9.516;2023-10-13T15:03:54;30.70;63.60
8338;DHT22;4206;48.634;9.516;2023-10-13T15:06:25;30.60;62.30
8338;DHT22;4206;48.634;9.516;2023-10-13T15:08:52;30.20;63.60
8338;DHT22;4206;48.634;9.516;2023-10-13T15:11:22;30.10;63.00
8338;DHT22;4206;48.634;9.516;2023-10-13T15:13:54;29.60;64.50
8338;DHT22;4206;48.634;9.516;2023-10-13T15:16:25;29.30;64.50
8338;DHT22;4206;48.634;9.516;2023-10-13T15:18:54;29.20;64.40
8338;DHT22;4206;48.634;9.516;2023-10-13T15:21:25;29.10;65.30
8338;DHT22;4206;48.634;9.516;2023-10-13T15:23:55;29.10;65.00
8338;DHT22;4206;48.634;9.516;2023-10-13T15:26:52;29.00;65.40
8338;DHT22;4206;48.634;9.516;2023-10-13T15:29:23;28.90;65.60
8338;DHT22;4206;48.634;9.516;2023-10-13T15:31:53;28.70;65.00
8338;DHT22;4206;48.634;9.516;2023-10-13T15:34:28;28.90;66.50
8338;DHT22;4206;48.634;9.516;2023-10-13T15:36:56;28.70;65.60
8338;DHT22;4206;48.634;9.516;2023-10-13T15:39:24;28.40;66.40
8338;DHT22;4206;48.634;9.516;2023-10-13T15:41:51;28.20;65.00
8338;DHT22;4206;48.634;9.516;2023-10-13T15:44:20;28.10;65.70
8338;DHT22;4206;48.634;9.516;2023-10-13T15:46:53;27.90;66.10
8338;DHT22;4206;48.634;9.516;2023-10-13T15:49:24;27.60;65.50
8338;DHT22;4206;48.634;9.516;2023-10-13T15:51:54;27.60;65.60
8338;DHT22;4206;48.634;9.516;2023-10-13T15:54:25;27.40;65.50
8338;DHT22;4206;48.634;9.516;2023-10-13T15:56:52;27.30;66.20
8338;DHT22;4206;48.634;9.516;2023-10-13T15:59:19;27.10;65.70
8338;DHT22;4206;48.634;9.516;2023-10-13T16:01:46;26.70;65.30
8338;DHT22;4206;48.634;9.516;2023-10-13T16:04:14;26.60;65.40
8338;DHT22;4206;48.634;9.516;2023-10-13T16:06:43;26.50;64.20
8338;DHT22;4206;48.634;9.516;2023-10-13T16:09:14;26.30;65.20
8338;DHT22;4206;48.634;9.516;2023-10-13T16:11:43;26.20;65.50
8338;DHT22;4206;48.634;9.516;2023-10-13T16:14:10;25.90;65.50
8338;DHT22;4206;48.634;9.516;2023-10-13T16:16:40;25.70;65.30
8338;DHT22;4206;48.634;9.516;2023-10-13T16:19:07;25.50;65.50
8338;DHT22;4206;48.634;9.516;2023-10-13T16:21:34;25.40;65.00
8338;DHT22;4206;48.634;9.516;2023-10-13T16:24:01;25.30;65.70
8338;DHT22;4206;48.634;9.516;2023-10-13T16:26:28;25.20;66.20
8338;DHT22;4206;48.634;9.516;2023-10-13T16:28:57;25.20;66.80
8338;DHT22;4206;48.634;9.516;2023-10-13T16:31:25;25.10;67.60
8338;DHT22;4206;48.634;9.516;2023-10-13T16:33:55;25.10;68.00
8338;DHT22;4206;48.634;9.516;2023-10-13T16:36:26;24.70;68.60
8338;DHT22;4206;48.634;9.516;2023-10-13T16:38:52;24.60;68.30
8338;DHT22;4206;48.634;9.516;2023-10-13T16:41:25;24.50;69.70
8338;DHT22;4206;48.634;9.516;2023-10-13T16:43:53;24.30;71.10
8338;DHT22;4206;48.634;9.516;2023-10-13T16:46:20;24.10;72.30
8338;DHT22;4206;48.634;9.516;2023-10-13T16:48:48;23.90;73.70
8338;DHT22;4206;48.634;9.516;2023-10-13T16:51:16;23.70;75.20
8338;DHT22;4206;48.634;9.516;2023-10-13T16:53:44;23.50;77.20
8338;DHT22;4206;48.634;9.516;2023-10-13T16:56:16;23.20;77.90
8338;DHT22;4206;48.634;9.516;2023-10-13T16:58:44;23.30;79.30
8338;DHT22;4206;48.634;9.516;2023-10-13T17:01:13;23.70;81.10
8338;DHT22;4206;48.634;9.516;2023-10-13T17:03:42;22.20;80.70